Time;durP1;ratioP1;P1;durP2;ratioP2;P2;SDS_P1;SDS_P2;PMS_P1;PMS_P2;Temp;Humidity;BMP_temperature;BMP_pressure;BME280_temperature;BME280_humidity;BME280_pressure;Samples;Min_cycle;Max_cycle;Signal;HPM_P1;HPM_P2
2021/04/30 00:02:14;;;;;;;23.00;20.50;;;;;;;9.83;34.12;100302.44;5021181;27;117354;-71
2021/04/30 00:04:42;;;;;;;22.88;20.20;;;;;;;9.87;34.11;100304.28;5006777;28;115402;-71
2021/04/30 00:07:10;;;;;;;23.35;20.77;;;;;;;9.93;33.96;100307.94;5006749;28;127829;-71
2021/04/30 00:09:40;;;;;;;22.80;20.50;;;;;;;9.92;33.98;100307.91;5006426;28;127809;-71
2021/04/30 00:12:12;;;;;;;22.87;20.40;;;;;;;9.92;33.94;100305.25;5007585;28;96845;-71
2021/04/30 00:14:44;;;;;;;20.88;18.73;;;;;;;9.89;34.01;100306.09;5002375;28;98467;-71
2021/04/30 00:17:17;;;;;;;22.05;19.73;;;;;;;9.85;34.03;100311.34;5006041;28;97886;-71
2021/04/30 00:19:49;;;;;;;21.13;18.98;;;;;;;9.85;34.00;100319.31;5005869;28;97788;-70
2021/04/30 00:22:21;;;;;;;18.25;16.35;;;;;;;9.85;33.98;100322.88;5036718;27;98322;-70
2021/04/30 00:24:53;;;;;;;18.07;16.13;;;;;;;9.78;33.95;100318.31;5007456;28;98250;-70
2021/04/30 00:27:26;;;;;;;17.40;15.60;;;;;;;9.70;34.16;100324.38;5005516;28;99671;-70
2021/04/30 00:29:55;;;;;;;16.83;15.13;;;;;;;9.68;34.15;100337.59;5006484;28;126136;-70
2021/04/30 00:32:27;;;;;;;16.08;14.50;;;;;;;9.66;34.28;100333.16;5006880;28;97178;-71
2021/04/30 00:34:56;;;;;;;16.13;14.43;;;;;;;9.69;34.29;100331.44;5005935;28;116149;-71
2021/04/30 00:37:24;;;;;;;15.60;14.10;;;;;;;9.71;34.35;100335.03;5004181;28;125838;-70
2021/04/30 00:39:56;;;;;;;14.07;12.77;;;;;;;9.67;34.47;100332.28;5005820;28;98931;-71
2021/04/30 00:42:28;;;;;;;13.15;11.93;;;;;;;9.62;34.39;100339.28;5005883;28;97216;-71
2021/04/30 00:44:59;;;;;;;14.15;12.85;;;;;;;9.59;34.45;100331.25;5005655;28;117056;-71
2021/04/30 00:47:34;;;;;;;13.20;11.90;;;;;;;9.53;34.68;100328.50;5005690;28;97392;-72
2021/04/30 00:50:03;;;;;;;12.75;11.50;;;;;;;9.52;34.69;100327.59;5004578;28;124830;-70
2021/04/30 00:52:36;;;;;;;13.75;12.35;;;;;;;9.51;34.82;100330.22;5005179;28;96723;-72
2021/04/30 00:55:10;;;;;;;13.40;12.10;;;;;;;9.52;34.86;100332.91;5006271;28;97401;-72
2021/04/30 00:57:47;;;;;;;13.47;12.07;;;;;;;9.59;34.91;100339.22;5006628;28;97593;-72
2021/04/30 01:00:21;;;;;;;14.10;12.75;;;;;;;9.57;35.00;100355.13;5004670;28;97635;-71
2021/04/30 01:02:54;;;;;;;14.15;12.73;;;;;;;9.52;35.04;100343.53;5037369;27;97735;-71
2021/04/30 01:05:26;;;;;;;10.85;9.82;;;;;;;9.50;34.74;100352.34;5039260;27;97722;-70
2021/04/30 01:07:58;;;;;;;12.32;11.13;;;;;;;9.43;34.45;100350.38;5006588;28;98822;-70
2021/04/30 01:10:26;;;;;;;12.73;11.52;;;;;;;9.36;34.35;100352.03;5005662;28;126983;-71
2021/04/30 01:12:55;;;;;;;16.13;14.50;;;;;;;9.35;34.77;100358.22;5006326;28;119162;-72
2021/04/30 01:15:28;;;;;;;13.57;12.18;;;;;;;9.33;34.58;100359.97;5039754;27;97188;-71
2021/04/30 01:18:00;;;;;;;15.18;12.05;;;;;;;9.23;34.57;100350.00;5007142;28;97705;-71
2021/04/30 01:20:33;;;;;;;13.30;11.88;;;;;;;9.21;34.42;100357.03;5005314;28;98146;-71
2021/04/30 01:23:06;;;;;;;13.95;11.98;;;;;;;9.12;34.60;100356.84;5008212;28;96844;-71
2021/04/30 01:25:38;;;;;;;17.83;13.10;;;;;;;9.09;34.32;100372.75;5007185;28;97055;-71
2021/04/30 01:28:07;;;;;;;15.63;12.25;;;;;;;8.99;34.53;100361.03;5005479;28;127934;-70
2021/04/30 01:30:36;;;;;;;14.75;13.15;;;;;;;9.00;34.23;100367.25;5008259;28;128014;-71
2021/04/30 01:33:16;;;;;;;14.48;12.75;;;;;;;8.96;34.38;100379.56;5009776;28;97889;-69
2021/04/30 01:35:48;;;;;;;20.08;17.33;;;;;;;8.91;35.17;100373.25;5037131;27;97144;-70
2021/04/30 01:38:21;;;;;;;17.70;14.63;;;;;;;8.98;34.91;100390.19;5038452;27;98027;-70
2021/04/30 01:40:54;;;;;;;15.73;14.00;;;;;;;8.97;34.62;100381.31;5007237;28;99652;-70
2021/04/30 01:43:26;;;;;;;19.67;17.67;;;;;;;8.95;35.29;100388.34;5010804;28;97125;-69
2021/04/30 01:45:59;;;;;;;16.92;13.73;;;;;;;8.96;35.28;100382.22;5011975;28;97831;-69
2021/04/30 01:48:33;;;;;;;16.70;14.20;;;;;;;8.97;35.09;100383.97;5011174;28;97361;-69
2021/04/30 01:51:06;;;;;;;16.90;14.25;;;;;;;8.89;35.08;100387.34;5009554;28;97757;-69
2021/04/30 01:53:39;;;;;;;16.13;14.00;;;;;;;8.81;35.11;100397.78;5010753;28;97608;-69
2021/04/30 01:56:12;;;;;;;16.80;13.63;;;;;;;8.72;35.13;100384.31;5011475;28;97034;-68
2021/04/30 01:58:42;;;;;;;14.25;12.75;;;;;;;8.73;34.93;100388.75;5007483;28;128303;-69
2021/04/30 02:01:11;;;;;;;17.50;13.13;;;;;;;8.73;35.00;100393.19;5037549;27;127944;-69
2021/04/30 02:03:43;;;;;;;19.48;13.65;;;;;;;8.69;34.81;100402.84;5008083;27;97621;-69
2021/04/30 02:06:15;;;;;;;18.63;15.02;;;;;;;8.67;34.89;100393.03;5007574;28;97035;-69
2021/04/30 02:08:48;;;;;;;18.67;14.50;;;;;;;8.60;34.97;100392.00;5007915;28;97549;-69
2021/04/30 02:11:21;;;;;;;15.88;14.02;;;;;;;8.57;35.11;100397.22;5009123;28;97771;-69
2021/04/30 02:13:53;;;;;;;16.67;13.80;;;;;;;8.54;35.08;100404.22;5009435;28;97086;-69
2021/04/30 02:16:25;;;;;;;17.48;14.02;;;;;;;8.51;35.09;100406.81;5004943;28;96985;-69
2021/04/30 02:18:57;;;;;;;15.85;13.73;;;;;;;8.51;35.10;100401.50;5007093;28;98632;-69
2021/04/30 02:21:29;;;;;;;17.02;14.23;;;;;;;8.48;35.11;100406.72;5006396;28;96874;-68
2021/04/30 02:24:03;;;;;;;23.17;15.68;;;;;;;8.49;34.89;100412.09;5009679;28;98115;-68
2021/04/30 02:26:35;;;;;;;17.83;14.93;;;;;;;8.49;35.14;100413.84;5009046;28;98600;-68
2021/04/30 02:29:07;;;;;;;20.02;14.23;;;;;;;8.47;34.83;100404.91;5008661;28;97484;-70
2021/04/30 02:31:39;;;;;;;17.33;13.75;;;;;;;8.48;35.03;100419.97;5010642;28;99075;-70
2021/04/30 02:34:08;;;;;;;16.05;13.80;;;;;;;8.50;35.01;100427.13;5009214;28;117007;-69
2021/04/30 02:36:40;;;;;;;20.52;15.13;;;;;;;8.54;34.73;100429.00;5010068;28;97003;-70
2021/04/30 02:39:13;;;;;;;18.02;14.50;;;;;;;8.54;34.96;100433.38;5008709;28;98320;-70
2021/04/30 02:41:45;;;;;;;15.60;13.68;;;;;;;8.60;34.81;100422.94;5010817;28;97839;-69
2021/04/30 02:44:17;;;;;;;15.30;13.73;;;;;;;8.60;34.85;100423.84;5041052;27;96842;-69
2021/04/30 02:46:49;;;;;;;17.45;15.00;;;;;;;8.63;34.89;100423.00;5010210;28;96954;-68
2021/04/30 02:49:25;;;;;;;17.70;14.77;;;;;;;8.68;34.62;100421.34;5007879;28;126771;-69
2021/04/30 02:51:57;;;;;;;19.00;14.93;;;;;;;8.71;34.69;100429.38;5009712;28;98107;-70
2021/04/30 02:54:29;;;;;;;18.40;14.93;;;;;;;8.70;34.85;100431.13;5009934;28;97331;-68
2021/04/30 02:57:03;;;;;;;17.58;14.15;;;;;;;8.70;34.64;100424.94;5009089;28;96787;-68
2021/04/30 02:59:35;;;;;;;16.17;14.48;;;;;;;8.74;34.59;100427.69;5008794;28;97099;-68
2021/04/30 03:02:08;;;;;;;16.35;14.35;;;;;;;8.79;34.57;100438.41;5009622;28;98986;-69
2021/04/30 03:04:42;;;;;;;18.17;14.60;;;;;;;8.80;34.70;100442.84;5009027;28;98319;-68
2021/04/30 03:07:14;;;;;;;15.07;13.43;;;;;;;8.78;34.61;100439.28;5009972;28;97363;-68
2021/04/30 03:09:47;;;;;;;16.75;14.93;;;;;;;8.79;34.65;100438.41;5009601;28;98682;-68
2021/04/30 03:12:19;;;;;;;16.45;14.05;;;;;;;8.75;35.07;100440.09;5009271;28;97857;-68
2021/04/30 03:14:52;;;;;;;16.05;13.93;;;;;;;8.72;34.82;100440.03;5010373;28;96814;-69
2021/04/30 03:17:20;;;;;;;19.60;16.08;;;;;;;8.69;34.95;100439.06;5005751;28;117077;-68
2021/04/30 03:19:49;;;;;;;17.65;14.88;;;;;;;8.66;34.97;100449.63;5038281;27;127919;-69
2021/04/30 03:22:17;;;;;;;18.40;14.43;;;;;;;8.66;34.91;100455.78;5039030;27;126865;-68
2021/04/30 03:24:45;;;;;;;17.15;14.48;;;;;;;8.72;34.71;100452.38;5040671;27;118148;-69
2021/04/30 03:27:15;;;;;;;17.70;15.00;;;;;;;8.69;35.08;100465.59;5042401;27;116801;-69
2021/04/30 03:29:43;;;;;;;17.10;15.10;;;;;;;8.70;34.72;100454.09;5007623;28;128037;-68
2021/04/30 03:32:15;;;;;;;18.58;15.00;;;;;;;8.69;35.04;100466.50;5006065;28;98940;-68
2021/04/30 03:34:47;;;;;;;18.58;15.20;;;;;;;8.69;35.05;100481.50;5009338;28;96808;-69
2021/04/30 03:37:20;;;;;;;19.00;16.05;;;;;;;8.65;34.94;100463.72;5009443;28;97439;-70
2021/04/30 03:39:52;;;;;;;18.25;14.40;;;;;;;8.61;35.40;100468.06;5007327;28;96968;-70
2021/04/30 03:42:21;;;;;;;19.13;14.85;;;;;;;8.60;35.38;100474.22;5005904;28;127842;-70
2021/04/30 03:44:53;;;;;;;18.73;15.63;;;;;;;8.66;35.27;100481.44;5009957;28;96945;-70
2021/04/30 03:47:25;;;;;;;19.48;16.35;;;;;;;8.67;35.38;100480.56;5009233;28;96849;-69
2021/04/30 03:49:53;;;;;;;19.45;16.10;;;;;;;8.66;35.27;100482.31;5006751;28;128782;-68
2021/04/30 03:52:26;;;;;;;22.27;16.02;;;;;;;8.65;35.63;100487.59;5009072;28;96903;-69
2021/04/30 03:54:58;;;;;;;20.38;16.50;;;;;;;8.65;35.55;100492.88;5008895;28;96725;-69
2021/04/30 03:57:27;;;;;;;20.02;16.52;;;;;;;8.64;35.30;100491.13;5006828;28;117894;-68
2021/04/30 03:59:55;;;;;;;20.90;16.85;;;;;;;8.60;35.50;100489.25;5007411;28;127675;-69
2021/04/30 04:02:28;;;;;;;19.20;16.05;;;;;;;8.60;35.56;100505.16;5000999;28;97489;-70
2021/04/30 04:05:01;;;;;;;21.05;15.73;;;;;;;8.58;35.71;100493.59;5007653;27;96893;-69
2021/04/30 04:07:33;;;;;;;20.58;16.77;;;;;;;8.58;35.71;100496.25;5004723;28;99175;-68
2021/04/30 04:10:02;;;;;;;20.35;16.38;;;;;;;8.63;35.78;100499.91;5004040;28;127933;-68
2021/04/30 04:12:31;;;;;;;19.48;15.60;;;;;;;8.60;35.75;100495.44;5006590;28;127226;-69
2021/04/30 04:15:05;;;;;;;20.38;15.10;;;;;;;8.61;35.65;100496.31;5003461;27;97828;-70
2021/04/30 04:17:37;;;;;;;20.55;15.60;;;;;;;8.60;35.59;100491.88;5004778;28;97242;-69
2021/04/30 04:20:11;;;;;;;18.55;15.52;;;;;;;8.58;35.79;100498.91;5006904;28;97681;-71
2021/04/30 04:22:43;;;;;;;22.05;16.92;;;;;;;8.58;35.91;100507.78;5007424;28;98860;-68
2021/04/30 04:25:15;;;;;;;20.63;16.13;;;;;;;8.60;36.01;100502.50;5006926;28;97813;-68
2021/04/30 04:27:48;;;;;;;18.80;14.95;;;;;;;8.61;35.84;100497.22;5008292;28;96903;-67
2021/04/30 04:30:21;;;;;;;20.35;15.70;;;;;;;8.56;36.06;100506.84;5008403;28;98308;-67
2021/04/30 04:32:50;;;;;;;18.30;15.25;;;;;;;8.55;35.90;100504.16;5004286;28;128549;-67
2021/04/30 04:35:22;;;;;;;20.63;15.75;;;;;;;8.57;36.11;100516.56;5005743;28;97516;-68
2021/04/30 04:37:54;;;;;;;19.33;15.40;;;;;;;8.57;36.12;100513.91;5006786;28;97738;-68
2021/04/30 04:40:26;;;;;;;20.08;15.43;;;;;;;8.60;36.08;100521.06;5005337;28;99007;-68
2021/04/30 04:42:59;;;;;;;19.80;14.82;;;;;;;8.62;36.14;100525.56;5006920;28;97941;-67
2021/04/30 04:45:32;;;;;;;20.58;16.30;;;;;;;8.65;36.24;100528.28;5006610;28;97473;-68
2021/04/30 04:48:00;;;;;;;19.00;15.20;;;;;;;8.69;36.03;100534.56;5005621;28;117241;-67
2021/04/30 04:50:33;;;;;;;22.35;16.75;;;;;;;8.68;36.10;100540.69;5006014;28;98169;-68
2021/04/30 04:53:25;;;;;;;16.92;13.63;;;;;;;8.73;35.80;100547.03;5007479;28;98067;-68
2021/04/30 04:56:17;;;;;;;21.27;15.27;;;;;;;8.77;35.81;100554.22;5006177;28;97453;-68
2021/04/30 04:58:50;;;;;;;20.17;14.32;;;;;;;8.79;35.81;100553.38;5005987;28;97719;-67
2021/04/30 05:01:22;;;;;;;18.70;15.35;;;;;;;8.87;35.67;100557.13;5005562;28;98020;-68
2021/04/30 05:03:54;;;;;;;19.00;15.38;;;;;;;8.90;35.98;100564.25;5007456;28;98733;-68
2021/04/30 05:06:26;;;;;;;18.85;14.73;;;;;;;8.95;35.93;100570.59;5005438;28;97858;-67
2021/04/30 05:08:58;;;;;;;18.45;14.30;;;;;;;8.95;35.92;100567.94;5006487;28;98869;-67
2021/04/30 05:11:31;;;;;;;17.00;13.90;;;;;;;8.94;36.03;100574.09;5006921;28;97817;-68
2021/04/30 05:14:04;;;;;;;17.95;14.73;;;;;;;8.94;35.99;100571.44;5005725;28;98890;-68
2021/04/30 05:16:36;;;;;;;16.40;14.00;;;;;;;8.99;36.10;100572.44;5005907;28;97048;-68
2021/04/30 05:19:05;;;;;;;18.20;14.65;;;;;;;9.03;35.94;100569.00;5004859;28;119015;-68
2021/04/30 05:21:33;;;;;;;16.42;13.50;;;;;;;9.05;35.96;100584.09;5004115;28;127895;-68
2021/04/30 05:24:03;;;;;;;17.38;13.68;;;;;;;9.05;36.25;100588.50;5003509;28;126245;-70
2021/04/30 05:26:35;;;;;;;17.98;14.18;;;;;;;9.07;36.01;100584.13;5004585;28;97767;-70
2021/04/30 05:29:08;;;;;;;18.70;14.10;;;;;;;9.10;36.16;100586.84;5006089;28;96991;-69
2021/04/30 05:31:36;;;;;;;17.60;14.02;;;;;;;9.13;35.91;100602.88;5006364;28;127972;-70
2021/04/30 05:34:09;;;;;;;18.52;14.43;;;;;;;9.15;36.01;100598.50;5006305;27;98191;-69
2021/04/30 05:36:37;;;;;;;18.17;13.77;;;;;;;9.17;36.14;100599.41;5007219;28;115758;-70
2021/04/30 05:39:05;;;;;;;16.85;13.95;;;;;;;9.22;36.06;100605.75;5007066;28;115983;-70
2021/04/30 05:41:37;;;;;;;16.63;13.13;;;;;;;9.27;35.91;100604.09;5008745;28;99285;-69
2021/04/30 05:44:06;;;;;;;19.35;14.25;;;;;;;9.32;35.84;100609.53;5005658;28;127548;-70
2021/04/30 05:46:39;;;;;;;17.80;14.25;;;;;;;9.32;36.22;100607.75;5008736;28;97535;-70
2021/04/30 05:49:08;;;;;;;16.92;13.95;;;;;;;9.34;35.89;100608.69;5004602;28;116242;-69
2021/04/30 05:51:40;;;;;;;18.70;14.52;;;;;;;9.36;35.93;100617.59;5005399;28;98413;-73
2021/04/30 05:54:12;;;;;;;18.02;14.65;;;;;;;9.38;35.85;100615.84;5006901;28;97673;-72
2021/04/30 05:56:45;;;;;;;18.52;14.20;;;;;;;9.35;36.00;100607.84;5006676;28;96839;-72
2021/04/30 05:59:13;;;;;;;20.88;14.98;;;;;;;9.35;36.17;100626.41;5003847;28;116829;-71
2021/04/30 06:01:42;;;;;;;19.30;14.50;;;;;;;9.36;35.90;100620.25;5003176;28;127247;-71
2021/04/30 06:04:11;;;;;;;18.85;14.70;;;;;;;9.41;35.98;100629.19;5005511;28;127894;-68
2021/04/30 06:06:49;;;;;;;20.25;14.75;;;;;;;9.45;36.08;100633.72;5004475;28;97493;-70
2021/04/30 06:09:20;;;;;;;22.33;14.98;;;;;;;9.46;36.24;100635.53;5003473;28;117933;-70
2021/04/30 06:11:49;;;;;;;18.85;14.73;;;;;;;9.47;35.96;100634.69;4989280;28;128458;-74
2021/04/30 06:14:25;;;;;;;21.13;14.95;;;;;;;9.48;36.20;100640.91;5001486;28;98006;-72
2021/04/30 06:16:58;;;;;;;23.13;14.95;;;;;;;9.45;36.21;100644.34;4995818;28;97630;-73
2021/04/30 06:19:27;;;;;;;23.08;15.65;;;;;;;9.46;36.09;100639.94;5003753;28;119221;-72
2021/04/30 06:22:00;;;;;;;19.98;14.07;;;;;;;9.43;36.31;100653.13;5001745;28;98332;-71
2021/04/30 06:24:33;;;;;;;26.77;20.15;;;;;;;9.36;37.63;100653.84;5000027;28;97648;-71
2021/04/30 06:27:02;;;;;;;24.20;15.98;;;;;;;9.45;37.24;100657.63;5003217;28;116670;-70
2021/04/30 06:30:02;;;;;;;25.27;16.05;;;;;;;9.45;37.01;100660.28;5007423;28;115959;-71
2021/04/30 06:33:15;;;;;;;28.40;22.05;;;;;;;9.41;38.58;100661.06;5001804;28;98912;-71
2021/04/30 06:35:43;;;;;;;24.65;16.90;;;;;;;9.56;37.91;100661.47;5003985;28;128671;-71
2021/04/30 06:38:12;;;;;;;29.10;21.42;;;;;;;9.61;38.63;100661.59;4997714;28;118207;-68
2021/04/30 06:40:40;;;;;;;25.02;17.63;;;;;;;9.70;37.96;100664.47;5003469;28;119314;-68
2021/04/30 06:43:08;;;;;;;22.42;15.43;;;;;;;9.73;37.82;100665.41;5001011;28;127306;-68
2021/04/30 06:45:37;;;;;;;22.90;15.98;;;;;;;9.74;37.49;100655.66;5002772;28;128846;-68
2021/04/30 06:48:06;;;;;;;22.85;15.40;;;;;;;9.77;37.51;100663.72;5005335;28;118051;-72
2021/04/30 06:50:35;;;;;;;21.38;15.25;;;;;;;9.75;37.19;100676.09;5000823;28;118285;-72
2021/04/30 06:53:05;;;;;;;21.70;15.15;;;;;;;9.67;37.24;100677.66;5017355;27;128579;-70
2021/04/30 06:55:33;;;;;;;23.35;16.02;;;;;;;9.67;37.19;100673.25;5002832;28;129004;-76
2021/04/30 06:58:05;;;;;;;21.60;15.45;;;;;;;9.64;36.99;100672.28;4989931;28;98189;-77
2021/04/30 07:00:34;;;;;;;25.05;16.17;;;;;;;9.68;37.00;100680.34;5018441;27;116519;-76
2021/04/30 07:03:02;;;;;;;22.40;15.55;;;;;;;9.66;36.89;100679.44;5031000;27;128674;-74
2021/04/30 07:05:35;;;;;;;25.05;16.27;;;;;;;9.68;36.87;100682.13;5000770;28;97571;-75
2021/04/30 07:08:04;;;;;;;20.83;14.77;;;;;;;9.67;36.90;100688.28;4998753;28;116851;-76
2021/04/30 07:10:33;;;;;;;20.67;14.02;;;;;;;9.68;36.79;100684.78;5001046;28;119395;-73
2021/04/30 07:13:09;;;;;;;25.77;17.58;;;;;;;9.69;37.24;100683.91;4999920;28;128773;-75
2021/04/30 07:15:37;;;;;;;25.63;16.65;;;;;;;9.70;36.75;100683.94;4997991;28;129549;-75
2021/04/30 07:18:06;;;;;;;23.00;15.95;;;;;;;9.81;36.67;100685.06;5000168;28;118426;-74
2021/04/30 07:20:38;;;;;;;21.55;15.07;;;;;;;9.90;36.64;100681.75;5002160;28;97759;-73
2021/04/30 07:23:11;;;;;;;29.55;20.85;;;;;;;9.89;37.62;100693.22;4998689;28;98565;-75
2021/04/30 07:25:41;;;;;;;25.55;17.92;;;;;;;10.07;36.99;100690.97;5000840;28;127927;-75
2021/04/30 07:28:09;;;;;;;23.40;16.02;;;;;;;10.15;36.82;100694.69;4999934;28;118048;-75
2021/04/30 07:30:37;;;;;;;22.88;16.10;;;;;;;10.22;36.61;100696.63;4997971;28;118397;-75
2021/04/30 07:33:11;;;;;;;26.20;15.05;;;;;;;10.31;36.29;100695.91;5010972;27;98293;-74
2021/04/30 07:35:40;;;;;;;29.13;18.35;;;;;;;10.43;36.06;100706.84;4998596;28;127727;-74
2021/04/30 07:38:13;;;;;;;25.38;16.60;;;;;;;10.51;36.03;100710.53;5009582;27;97023;-75
2021/04/30 07:40:44;;;;;;;24.52;17.13;;;;;;;10.57;35.80;100708.03;4997854;28;118317;-76
2021/04/30 07:43:13;;;;;;;24.35;16.38;;;;;;;10.58;35.77;100701.81;4990498;28;128830;-75
2021/04/30 07:45:45;;;;;;;27.27;18.17;;;;;;;10.59;35.76;100714.28;5002320;28;98699;-74
2021/04/30 07:48:14;;;;;;;23.58;16.02;;;;;;;10.66;35.62;100705.53;5034545;27;117041;-74
2021/04/30 07:50:46;;;;;;;27.70;16.98;;;;;;;10.61;35.64;100710.75;5004065;28;97284;-71
2021/04/30 07:53:15;;;;;;;25.05;16.65;;;;;;;10.64;35.59;100705.50;5036313;27;128648;-73
2021/04/30 07:55:44;;;;;;;23.25;15.98;;;;;;;10.72;35.47;100711.00;5002472;28;127218;-74
2021/04/30 07:58:12;;;;;;;20.70;14.93;;;;;;;10.78;35.36;100709.31;5000765;28;118972;-74
2021/04/30 08:00:45;;;;;;;24.77;16.38;;;;;;;10.88;35.29;100708.66;5001319;28;97176;-74
2021/04/30 08:03:19;;;;;;;18.23;13.00;;;;;;;11.03;35.28;100713.34;5002124;28;98800;-75
2021/04/30 08:05:48;;;;;;;15.88;12.57;;;;;;;11.13;34.92;100715.31;4999969;28;129509;-74
2021/04/30 08:08:18;;;;;;;13.35;10.65;;;;;;;11.20;34.88;100717.19;5000259;28;117047;-75
2021/04/30 08:10:51;;;;;;;14.13;11.20;;;;;;;11.28;34.72;100720.00;5003120;28;96868;-73
2021/04/30 08:13:19;;;;;;;17.23;12.55;;;;;;;11.37;34.32;100725.50;5001681;28;128575;-73
2021/04/30 08:15:47;;;;;;;16.77;12.30;;;;;;;11.38;34.46;100722.88;5002107;28;125913;-73
2021/04/30 08:18:19;;;;;;;14.77;11.43;;;;;;;11.41;34.44;100728.28;5003264;28;97700;-73
2021/04/30 08:20:48;;;;;;;12.65;10.95;;;;;;;11.40;34.38;100737.13;5001978;28;117944;-73
2021/04/30 08:23:21;;;;;;;16.40;14.20;;;;;;;11.24;34.99;100740.34;4999692;28;99212;-73
2021/04/30 08:25:49;;;;;;;13.73;11.30;;;;;;;11.33;34.55;100750.31;5015754;27;127906;-74
2021/04/30 08:28:17;;;;;;;14.50;9.95;;;;;;;11.33;34.33;100743.22;5003941;28;116108;-74
2021/04/30 08:30:50;;;;;;;13.25;10.90;;;;;;;11.35;34.44;100745.91;5003765;28;97351;-73
2021/04/30 08:33:18;;;;;;;11.50;9.55;;;;;;;11.34;34.37;100750.34;5034066;27;126510;-75
2021/04/30 08:35:46;;;;;;;10.45;9.35;;;;;;;11.37;34.20;100750.41;5035299;27;127906;-73
2021/04/30 08:38:19;;;;;;;8.80;7.90;;;;;;;11.44;34.02;100756.72;5006213;28;97554;-73
2021/04/30 08:40:48;;;;;;;9.68;8.18;;;;;;;11.50;34.16;100754.16;5000197;28;116828;-74
2021/04/30 08:43:17;;;;;;;10.50;8.55;;;;;;;11.48;34.26;100762.13;5036122;27;127939;-73
2021/04/30 08:45:54;;;;;;;11.73;8.55;;;;;;;11.47;34.17;100759.47;5003660;28;98643;-74
2021/04/30 08:48:28;;;;;;;9.60;8.60;;;;;;;11.54;34.25;100767.59;5003003;28;97339;-73
2021/04/30 08:50:56;;;;;;;9.52;8.43;;;;;;;11.55;33.98;100766.69;5001587;28;118802;-73
2021/04/30 08:53:25;;;;;;;16.65;12.50;;;;;;;11.55;34.14;100773.78;5005591;27;126837;-70
2021/04/30 08:55:54;;;;;;;10.80;8.82;;;;;;;11.52;34.17;100774.66;5002589;28;126795;-71
2021/04/30 08:58:27;;;;;;;7.95;7.18;;;;;;;11.51;34.02;100778.16;4999120;28;98762;-72
2021/04/30 09:00:56;;;;;;;7.05;6.35;;;;;;;11.53;33.81;100780.84;5000024;28;117145;-69
2021/04/30 09:03:28;;;;;;;7.05;6.45;;;;;;;11.56;34.01;100783.59;5004195;28;97684;-71
2021/04/30 09:06:02;;;;;;;7.18;6.47;;;;;;;11.61;33.50;100789.91;5001863;28;98017;-71
2021/04/30 09:08:44;;;;;;;7.82;7.15;;;;;;;11.62;33.86;100781.91;5003143;28;115211;-69
2021/04/30 09:11:33;;;;;;;7.43;6.72;;;;;;;11.66;33.89;100778.44;4999286;28;117738;-72
2021/04/30 09:14:23;;;;;;;8.25;7.45;;;;;;;11.68;33.73;100782.03;5003227;28;98437;-70
2021/04/30 09:17:05;;;;;;;8.00;7.20;;;;;;;11.71;33.69;100781.16;5001601;28;126734;-70
2021/04/30 09:19:48;;;;;;;9.38;8.48;;;;;;;11.72;33.52;100777.63;4999090;28;96937;-72
2021/04/30 09:22:17;;;;;;;7.80;6.97;;;;;;;11.73;33.60;100775.00;5002857;28;119572;-71
2021/04/30 09:24:53;;;;;;;8.10;6.15;;;;;;;11.76;33.54;100780.38;5003540;28;127202;-74
2021/04/30 09:27:35;;;;;;;6.78;6.07;;;;;;;11.77;33.40;100782.19;5004713;28;97692;-71
2021/04/30 09:30:25;;;;;;;6.15;5.65;;;;;;;11.77;33.52;100782.19;5002718;28;118054;-70
2021/04/30 09:33:08;;;;;;;5.97;5.45;;;;;;;11.72;33.46;100777.63;5007034;28;117812;-70
2021/04/30 09:35:38;;;;;;;5.60;5.05;;;;;;;11.71;33.44;100770.50;5004677;28;127961;-70
2021/04/30 09:38:18;;;;;;;6.63;6.13;;;;;;;11.77;33.33;100776.84;5006849;28;127680;-71
2021/04/30 09:40:47;;;;;;;6.47;5.88;;;;;;;11.81;33.12;100770.69;5004440;28;119095;-70
2021/04/30 09:43:17;;;;;;;37.25;26.95;;;;;;;11.89;33.19;100769.03;5003769;28;117795;-72
2021/04/30 09:45:49;;;;;;;42.97;24.25;;;;;;;11.98;32.83;100774.50;5007103;28;97597;-72
2021/04/30 09:48:18;;;;;;;35.97;19.77;;;;;;;12.09;32.80;100775.56;5003996;28;126839;-71
2021/04/30 09:50:50;;;;;;;16.17;11.90;;;;;;;12.15;32.48;100786.31;5005311;28;97428;-73
2021/04/30 09:53:18;;;;;;;6.25;5.68;;;;;;;12.21;32.61;100776.66;5003391;28;117997;-71
2021/04/30 09:55:47;;;;;;;6.38;5.63;;;;;;;12.18;32.55;100777.53;5003832;28;128042;-69
2021/04/30 09:58:21;;;;;;;55.20;32.70;;;;;;;12.23;32.66;100774.91;5035947;27;98905;-72
2021/04/30 10:00:51;;;;;;;13.85;11.60;;;;;;;12.28;32.67;100773.19;5032212;27;116778;-71
2021/04/30 10:03:26;;;;;;;29.15;17.13;;;;;;;12.36;32.36;100784.88;5004784;28;97874;-73
2021/04/30 10:06:04;;;;;;;7.55;6.82;;;;;;;12.40;32.42;100781.38;4990760;28;128078;-71
2021/04/30 10:08:36;;;;;;;5.85;5.15;;;;;;;12.48;32.41;100777.03;5007031;28;97778;-72
2021/04/30 10:11:05;;;;;;;5.57;5.05;;;;;;;12.55;32.13;100784.22;5004686;28;119234;-70
2021/04/30 10:13:42;;;;;;;6.63;5.90;;;;;;;12.49;32.00;100792.19;5003633;28;117316;-70
2021/04/30 10:16:11;;;;;;;5.88;5.43;;;;;;;12.39;32.38;100790.25;4994397;28;128379;-67
2021/04/30 10:18:40;;;;;;;5.05;4.43;;;;;;;12.37;32.43;100794.66;5036922;27;126807;-69
2021/04/30 10:21:10;;;;;;;5.07;4.70;;;;;;;12.39;32.35;100787.56;5039145;27;118171;-69
2021/04/30 10:23:39;;;;;;;4.97;4.47;;;;;;;12.40;32.23;100787.59;5007594;28;116045;-69
2021/04/30 10:26:11;;;;;;;6.07;4.40;;;;;;;12.42;32.10;100784.97;5005617;28;128888;-65
2021/04/30 10:28:42;;;;;;;4.72;4.43;;;;;;;12.43;32.12;100792.09;5005816;28;126633;-71
2021/04/30 10:31:13;;;;;;;3.85;3.65;;;;;;;12.42;32.03;100791.19;5000636;28;117357;-75
2021/04/30 10:33:44;;;;;;;3.92;3.63;;;;;;;12.43;32.08;100792.09;4989862;28;119419;-73
2021/04/30 10:36:20;;;;;;;3.92;3.72;;;;;;;12.41;32.01;100791.16;4996410;28;129019;-73
2021/04/30 10:38:54;;;;;;;3.75;3.55;;;;;;;12.40;32.08;100781.38;5026615;27;126334;-72
2021/04/30 10:41:27;;;;;;;3.75;3.55;;;;;;;12.31;32.15;100789.25;4986438;28;117210;-72
2021/04/30 10:44:14;;;;;;;12.88;9.02;;;;;;;12.30;32.12;100790.13;5002426;28;116851;-72
2021/04/30 10:46:52;;;;;;;32.40;18.88;;;;;;;12.26;31.99;100788.28;5004010;28;128038;-73
2021/04/30 10:49:31;;;;;;;8.40;7.07;;;;;;;12.26;32.18;100790.94;5004274;28;128482;-69
2021/04/30 10:52:24;;;;;;;8.85;6.45;;;;;;;12.31;32.04;100786.59;5001458;28;117085;-75
2021/04/30 10:55:04;;;;;;;17.67;12.32;;;;;;;12.35;32.02;100793.75;5007303;28;97478;-74
2021/04/30 10:57:53;;;;;;;6.18;5.60;;;;;;;12.38;31.90;100789.38;5007400;28;126859;-71
2021/04/30 11:00:48;;;;;;;5.97;3.85;;;;;;;12.39;31.69;100796.50;5021588;27;126068;-74
2021/04/30 11:03:28;;;;;;;4.32;4.03;;;;;;;12.34;31.83;100797.31;5007516;27;118299;-71
2021/04/30 11:06:04;;;;;;;4.03;3.72;;;;;;;12.31;31.82;100802.59;5009581;28;117472;-74
2021/04/30 11:09:01;;;;;;;4.10;3.80;;;;;;;12.24;31.88;100800.72;5013528;28;126359;-73
2021/04/30 11:11:45;;;;;;;6.30;5.55;;;;;;;12.22;31.77;100798.00;4992567;28;123943;-72
2021/04/30 11:14:27;;;;;;;4.40;4.10;;;;;;;12.25;32.09;100803.41;4998341;28;113682;-73
2021/04/30 11:17:03;;;;;;;21.90;15.68;;;;;;;12.24;31.85;100800.72;5006739;28;116871;-71
2021/04/30 11:19:45;;;;;;;76.20;41.25;;;;;;;12.24;31.90;100806.94;5033684;27;128738;-74
2021/04/30 11:22:14;;;;;;;77.68;44.97;;;;;;;12.20;32.44;100809.56;5007930;27;126197;-76
2021/04/30 11:24:50;;;;;;;11.30;7.72;;;;;;;12.35;32.13;100804.41;5003681;28;117006;-73
2021/04/30 11:27:30;;;;;;;6.57;5.97;;;;;;;12.42;31.98;100806.31;5001932;28;117931;-74
2021/04/30 11:30:25;;;;;;;5.80;5.32;;;;;;;12.47;31.80;100804.59;5033713;27;128087;-74
2021/04/30 11:32:55;;;;;;;5.68;5.18;;;;;;;12.47;31.88;100812.59;4997752;28;128649;-73
2021/04/30 11:35:25;;;;;;;5.70;5.20;;;;;;;12.50;31.86;100815.31;5002098;28;117264;-75
2021/04/30 11:37:58;;;;;;;6.20;5.70;;;;;;;12.55;31.44;100813.59;5007027;28;98117;-76
2021/04/30 11:40:27;;;;;;;5.32;4.82;;;;;;;12.54;31.69;100828.72;5004224;28;127972;-74